»·PEaware :: N7GL KOAK-KRNO

N7GL :: KOAK-KRNO

FLIGHT INFORMATION

Flight Status: Arrived
Operator: Privately registered:
United States
More flights under this callsign
Pilot: Georg L. (13308)
Aircraft: BEECH AIRCRAFT SUPER KING AIR 350
(B350)
More flights by this aircraft type
Origin: KOAK Metro Oakland Intl
United States
Destination: KRNO Reno/Tahoe Intl
United States
More flights between these airports :: More routes between these airports
Route: +OAK5 COLLI V6 SWR TRUCK FMG
File this flight plan on PilotEdge
Remarks:
Altitude:
(Current/Filed)
19,000ft
Speed:
(Current/Filed)
296kts
Departed: 04-Aug-20 12:31 PM
Arrived: 04-Aug-20 01:25 PM
Distance/Time
Traveled:
157nm/0:54
Distance/Time
To Go:
Arrived

Flight Plot

Page will automatically refresh every two minutes.

Flight plan parsing failed; only flown route is shown


Map Options




Map Legend


Flown Route
Filed Route
Departure Airport
Arrival Airport
Navaid (VOR, NDB)
Fix

Horizontal Profiles

Position Reports

Time Latitude Longitude Heading Altitude Ground
Speed
04-Aug-20 12:03 37.729486 -122.212559 305 12ft 0kts
04-Aug-20 12:04 37.729486 -122.212559 305 12ft 0kts
04-Aug-20 12:05 37.729486 -122.212559 305 12ft 0kts
04-Aug-20 12:06 37.729487 -122.212559 304 12ft 0kts
04-Aug-20 12:07 37.729487 -122.212559 305 12ft 0kts
04-Aug-20 12:08 37.729487 -122.212559 305 12ft 0kts
04-Aug-20 12:09 37.729487 -122.212559 305 12ft 0kts
04-Aug-20 12:10 37.729487 -122.212559 305 12ft 0kts
04-Aug-20 12:11 37.729487 -122.212559 305 12ft 0kts
04-Aug-20 12:12 37.729487 -122.212559 305 12ft 0kts
04-Aug-20 12:13 37.729487 -122.212559 305 12ft 0kts
04-Aug-20 12:14 37.729487 -122.212559 305 12ft 0kts
04-Aug-20 12:15 37.729487 -122.212559 305 12ft 0kts
04-Aug-20 12:16 37.729487 -122.212559 305 12ft 0kts
04-Aug-20 12:17 37.729487 -122.212559 305 12ft 0kts
04-Aug-20 12:18 37.729487 -122.212559 305 12ft 0kts
04-Aug-20 12:19 37.729520 -122.212613 304 12ft 0kts
04-Aug-20 12:20 37.729520 -122.212613 304 12ft 0kts
04-Aug-20 12:21 37.729520 -122.212613 304 12ft 0kts
04-Aug-20 12:22 37.729521 -122.212614 303 12ft 0kts
04-Aug-20 12:23 37.729531 -122.212634 300 12ft 0kts
04-Aug-20 12:24 37.727894 -122.210961 112 12ft 22kts
04-Aug-20 12:25 37.725789 -122.204499 150 12ft 8kts
04-Aug-20 12:26 37.725584 -122.204464 197 12ft 0kts
04-Aug-20 12:27 37.725584 -122.204464 197 12ft 0kts
04-Aug-20 12:28 37.725567 -122.204471 197 12ft 3kts
04-Aug-20 12:29 37.724969 -122.205164 290 12ft 0kts
04-Aug-20 12:30 37.735286 -122.235869 291 934ft 157kts
04-Aug-20 12:31 37.755658 -122.294541 291 2025ft 225kts
04-Aug-20 12:32 37.777338 -122.360273 291 4616ft 176kts
04-Aug-20 12:33 37.796108 -122.418976 291 6491ft 183kts
04-Aug-20 12:34 37.815110 -122.478503 291 8278ft 184kts
04-Aug-20 12:35 37.852686 -122.485198 73 9916ft 196kts
04-Aug-20 12:36 37.855345 -122.416362 89 11650ft 198kts
04-Aug-20 12:37 37.856963 -122.346115 89 13313ft 201kts
04-Aug-20 12:38 37.858535 -122.280412 89 14732ft 204kts
04-Aug-20 12:39 37.860222 -122.208379 89 16168ft 206kts
04-Aug-20 12:40 37.861887 -122.135392 89 17510ft 208kts
04-Aug-20 12:41 37.878106 -122.067799 38 18786ft 211kts
04-Aug-20 12:42 37.927454 -122.017244 37 19093ft 253kts
04-Aug-20 12:43 37.985705 -121.957180 37 19081ft 283kts
04-Aug-20 12:44 38.048354 -121.892458 37 19077ft 296kts
04-Aug-20 12:45 38.112222 -121.826402 38 19073ft 302kts
04-Aug-20 12:46 38.178806 -121.760548 31 19072ft 304kts
04-Aug-20 12:47 38.250740 -121.703586 30 19072ft 305kts
04-Aug-20 12:48 38.323089 -121.646446 30 19031ft 307kts
04-Aug-20 12:49 38.395765 -121.588836 30 18990ft 307kts
04-Aug-20 12:50 38.461686 -121.520932 51 18984ft 307kts
04-Aug-20 12:51 38.512838 -121.432878 53 18982ft 307kts
04-Aug-20 12:52 38.562643 -121.346841 53 18981ft 307kts
04-Aug-20 12:53 38.609132 -121.266835 53 18980ft 307kts
04-Aug-20 12:54 38.659905 -121.179303 53 18982ft 304kts
04-Aug-20 12:55 38.709811 -121.093059 53 19031ft 300kts
04-Aug-20 12:56 38.759511 -121.007002 53 19077ft 299kts
04-Aug-20 12:57 38.808812 -120.921375 53 19110ft 299kts
04-Aug-20 12:58 38.857993 -120.835622 53 19110ft 299kts
04-Aug-20 12:59 38.907445 -120.749325 53 19128ft 298kts
04-Aug-20 13:00 38.956330 -120.663681 53 19174ft 297kts
04-Aug-20 13:01 39.005188 -120.578035 54 19217ft 296kts
04-Aug-20 13:02 39.053604 -120.492553 54 19258ft 296kts
04-Aug-20 13:03 39.101011 -120.408990 54 19258ft 297kts
04-Aug-20 13:04 39.149289 -120.323505 54 19253ft 298kts
04-Aug-20 13:05 39.210846 -120.257308 15 19267ft 295kts
04-Aug-20 13:06 39.288803 -120.224007 17 19256ft 296kts
04-Aug-20 13:07 39.371101 -120.189344 17 17984ft 322kts
04-Aug-20 13:08 39.437133 -120.120371 75 16541ft 324kts
04-Aug-20 13:09 39.459782 -120.007600 77 15271ft 322kts
04-Aug-20 13:10 39.482377 -119.896010 77 14073ft 319kts
04-Aug-20 13:11 39.504782 -119.785338 77 12897ft 314kts
04-Aug-20 13:12 39.534379 -119.682918 51 11751ft 301kts
04-Aug-20 13:13 39.607731 -119.641926 8 10642ft 293kts
04-Aug-20 13:14 39.686065 -119.624366 8 10032ft 270kts
04-Aug-20 13:15 39.757280 -119.630468 353 10045ft 251kts
04-Aug-20 13:16 39.812261 -119.674127 290 9486ft 247kts
04-Aug-20 13:17 39.797431 -119.754934 216 8382ft 243kts
04-Aug-20 13:18 39.735313 -119.766242 180 7833ft 204kts
04-Aug-20 13:19 39.680834 -119.766466 179 7790ft 198kts
04-Aug-20 13:20 39.625002 -119.766604 179 6685ft 178kts
04-Aug-20 13:21 39.583557 -119.766454 179 5791ft 128kts
04-Aug-20 13:22 39.546662 -119.766513 178 5151ft 136kts
04-Aug-20 13:23 39.510547 -119.766740 178 4439ft 118kts
04-Aug-20 13:24 39.497355 -119.765481 90 4420ft 7kts
04-Aug-20 13:25 39.497855 -119.765190 359 4420ft 8kts
04-Aug-20 13:26 39.499886 -119.765226 359 4420ft 8kts
04-Aug-20 13:27 39.502896 -119.765731 358 4420ft 17kts
04-Aug-20 13:28 39.504965 -119.764945 358 4420ft 6kts
04-Aug-20 13:29 39.505308 -119.765267 81 4420ft 0kts
04-Aug-20 13:30 39.505308 -119.765268 81 4420ft 0kts
04-Aug-20 13:31 39.505308 -119.765268 81 4420ft 0kts
04-Aug-20 13:32 39.505308 -119.765268 81 4420ft 0kts
04-Aug-20 13:33 39.505308 -119.765268 81 4420ft 0kts
04-Aug-20 13:34 39.505308 -119.765268 81 4420ft 0kts
04-Aug-20 13:35 39.505308 -119.765268 81 4420ft 0kts

Navigation Log

Ident Type
Flight plan parsing failed, navigation log unavailable